sensor_id;sensor_type;location;lat;lon;timestamp;pressure;altitude;pressure_sealevel;temperature;humidity
24788;BME280;12883;52.662;5.196;2023-01-05T00:02:09;101403.16;;;11.88;100.00
24788;BME280;12883;52.662;5.196;2023-01-05T00:04:34;101411.53;;;11.85;100.00
24788;BME280;12883;52.662;5.196;2023-01-05T00:06:59;101356.50;;;11.58;100.00
24788;BME280;12883;52.662;5.196;2023-01-05T00:09:25;101409.50;;;11.87;100.00
24788;BME280;12883;52.662;5.196;2023-01-05T00:11:50;101402.09;;;11.82;100.00
24788;BME280;12883;52.662;5.196;2023-01-05T00:14:34;101413.94;;;11.80;100.00
24788;BME280;12883;52.662;5.196;2023-01-05T00:17:20;101397.97;;;11.80;100.00
24788;BME280;12883;52.662;5.196;2023-01-05T00:20:09;101426.47;;;11.86;100.00
24788;BME280;12883;52.662;5.196;2023-01-05T00:22:55;101374.34;;;11.64;100.00
24788;BME280;12883;52.662;5.196;2023-01-05T00:25:27;101422.53;;;11.82;100.00
24788;BME280;12883;52.662;5.196;2023-01-05T00:27:52;101427.47;;;11.85;100.00
24788;BME280;12883;52.662;5.196;2023-01-05T00:30:20;101422.53;;;11.82;100.00
24788;BME280;12883;52.662;5.196;2023-01-05T00:32:46;101416.22;;;11.83;100.00
24788;BME280;12883;52.662;5.196;2023-01-05T00:35:13;101407.59;;;11.81;100.00
24788;BME280;12883;52.662;5.196;2023-01-05T00:37:39;101427.41;;;11.78;100.00
24788;BME280;12883;52.662;5.196;2023-01-05T00:40:16;101424.38;;;11.81;100.00
24788;BME280;12883;52.662;5.196;2023-01-05T00:42:41;101412.91;;;11.81;100.00
24788;BME280;12883;52.662;5.196;2023-01-05T00:45:09;101417.44;;;11.80;100.00
24788;BME280;12883;52.662;5.196;2023-01-05T00:47:35;101433.13;;;11.75;100.00
24788;BME280;12883;52.662;5.196;2023-01-05T00:50:01;101430.47;;;11.75;100.00
24788;BME280;12883;52.662;5.196;2023-01-05T00:52:26;101431.22;;;11.69;100.00
24788;BME280;12883;52.662;5.196;2023-01-05T00:54:51;101424.13;;;11.76;100.00
24788;BME280;12883;52.662;5.196;2023-01-05T00:57:17;101438.88;;;11.79;100.00
24788;BME280;12883;52.662;5.196;2023-01-05T00:59:42;101438.03;;;11.78;100.00
24788;BME280;12883;52.662;5.196;2023-01-05T01:02:08;101446.59;;;11.74;100.00
24788;BME280;12883;52.662;5.196;2023-01-05T01:04:34;101396.06;;;11.53;100.00
24788;BME280;12883;52.662;5.196;2023-01-05T01:07:01;101443.75;;;11.75;100.00
24788;BME280;12883;52.662;5.196;2023-01-05T01:09:27;101444.50;;;11.69;100.00
24788;BME280;12883;52.662;5.196;2023-01-05T01:11:52;101459.28;;;11.72;100.00
24788;BME280;12883;52.662;5.196;2023-01-05T01:14:17;101453.50;;;11.68;100.00
24788;BME280;12883;52.662;5.196;2023-01-05T01:16:43;101458.81;;;11.68;100.00
24788;BME280;12883;52.662;5.196;2023-01-05T01:19:17;101459.28;;;11.72;100.00
24788;BME280;12883;52.662;5.196;2023-01-05T01:21:43;101452.66;;;11.68;100.00
24788;BME280;12883;52.662;5.196;2023-01-05T01:24:14;101464.59;;;11.72;100.00
24788;BME280;12883;52.662;5.196;2023-01-05T01:26:40;101459.09;;;11.73;100.00
24788;BME280;12883;52.662;5.196;2023-01-05T01:29:05;101467.44;;;11.70;100.00
24788;BME280;12883;52.662;5.196;2023-01-05T01:31:31;101463.97;;;11.70;100.00
24788;BME280;12883;52.662;5.196;2023-01-05T01:33:56;101465.34;;;11.66;100.00
24788;BME280;12883;52.662;5.196;2023-01-05T01:36:21;101466.81;;;11.68;100.00
24788;BME280;12883;52.662;5.196;2023-01-05T01:38:47;101472.56;;;11.72;100.00
24788;BME280;12883;52.662;5.196;2023-01-05T01:41:12;101470.03;;;11.64;100.00
24788;BME280;12883;52.662;5.196;2023-01-05T01:43:49;101480.94;;;11.69;100.00
24788;BME280;12883;52.662;5.196;2023-01-05T01:46:16;101491.56;;;11.69;100.00
24788;BME280;12883;52.662;5.196;2023-01-05T01:48:55;101473.31;;;11.66;100.00
24788;BME280;12883;52.662;5.196;2023-01-05T01:51:26;101487.88;;;11.70;100.00
24788;BME280;12883;52.662;5.196;2023-01-05T01:53:57;101503.63;;;11.71;100.00
24788;BME280;12883;52.662;5.196;2023-01-05T01:56:23;101481.81;;;11.76;100.00
24788;BME280;12883;52.662;5.196;2023-01-05T01:58:50;101491.16;;;11.72;100.00
24788;BME280;12883;52.662;5.196;2023-01-05T02:01:16;101495.28;;;11.74;100.00
24788;BME280;12883;52.662;5.196;2023-01-05T02:03:41;101491.78;;;11.74;100.00
24788;BME280;12883;52.662;5.196;2023-01-05T02:06:07;101499.97;;;11.72;100.00
24788;BME280;12883;52.662;5.196;2023-01-05T02:08:33;101444.78;;;11.39;100.00
24788;BME280;12883;52.662;5.196;2023-01-05T02:24:53;101510.84;;;11.77;100.00
24788;BME280;12883;52.662;5.196;2023-01-05T02:27:58;101507.00;;;11.80;100.00
24788;BME280;12883;52.662;5.196;2023-01-05T02:36:39;101505.34;;;11.79;100.00
24788;BME280;12883;52.662;5.196;2023-01-05T02:44:09;101499.63;;;11.82;100.00
24788;BME280;12883;52.662;5.196;2023-01-05T02:46:34;101505.34;;;11.79;100.00
24788;BME280;12883;52.662;5.196;2023-01-05T02:49:01;101490.72;;;11.68;100.00
24788;BME280;12883;52.662;5.196;2023-01-05T02:51:35;101499.03;;;11.80;100.00
24788;BME280;12883;52.662;5.196;2023-01-05T02:54:06;101504.34;;;11.80;100.00
24788;BME280;12883;52.662;5.196;2023-01-05T02:56:43;101519.53;;;11.86;100.00
24788;BME280;12883;52.662;5.196;2023-01-05T02:59:16;101512.13;;;11.81;100.00
24788;BME280;12883;52.662;5.196;2023-01-05T03:01:48;101514.16;;;11.79;100.00
24788;BME280;12883;52.662;5.196;2023-01-05T03:04:21;101504.72;;;11.77;100.00
24788;BME280;12883;52.662;5.196;2023-01-05T03:06:53;101505.53;;;11.77;100.00
24788;BME280;12883;52.662;5.196;2023-01-05T03:09:22;101521.31;;;11.79;100.00
24788;BME280;12883;52.662;5.196;2023-01-05T03:12:00;101529.47;;;11.77;100.00
24788;BME280;12883;52.662;5.196;2023-01-05T03:14:59;101519.56;;;11.71;100.00
24788;BME280;12883;52.662;5.196;2023-01-05T03:17:45;101527.47;;;11.79;100.00
24788;BME280;12883;52.662;5.196;2023-01-05T03:20:13;101520.47;;;11.78;100.00
24788;BME280;12883;52.662;5.196;2023-01-05T03:22:41;101537.88;;;11.81;100.00
24788;BME280;12883;52.662;5.196;2023-01-05T03:25:27;101526.81;;;11.77;100.00
24788;BME280;12883;52.662;5.196;2023-01-05T03:28:27;101514.72;;;11.75;100.00
24788;BME280;12883;52.662;5.196;2023-01-05T03:31:19;101541.56;;;11.80;100.00
24788;BME280;12883;52.662;5.196;2023-01-05T03:34:16;101536.41;;;11.78;100.00
24788;BME280;12883;52.662;5.196;2023-01-05T03:37:17;101535.50;;;11.86;100.00
24788;BME280;12883;52.662;5.196;2023-01-05T03:39:46;101532.66;;;11.87;100.00
24788;BME280;12883;52.662;5.196;2023-01-05T03:42:13;101543.19;;;11.81;100.00
24788;BME280;12883;52.662;5.196;2023-01-05T03:44:40;101533.47;;;11.88;100.00
24788;BME280;12883;52.662;5.196;2023-01-05T03:47:08;101538.78;;;11.88;100.00
24788;BME280;12883;52.662;5.196;2023-01-05T03:49:33;101553.47;;;11.84;100.00
24788;BME280;12883;52.662;5.196;2023-01-05T03:51:59;101539.53;;;11.82;100.00
24788;BME280;12883;52.662;5.196;2023-01-05T03:54:24;101550.81;;;11.84;100.00
24788;BME280;12883;52.662;5.196;2023-01-05T03:56:50;101543.19;;;11.81;100.00
24788;BME280;12883;52.662;5.196;2023-01-05T03:59:15;101552.47;;;11.85;100.00
24788;BME280;12883;52.662;5.196;2023-01-05T04:01:40;101554.22;;;11.78;100.00
24788;BME280;12883;52.662;5.196;2023-01-05T04:04:05;101553.03;;;11.80;100.00
24788;BME280;12883;52.662;5.196;2023-01-05T04:06:31;101510.47;;;11.59;100.00
24788;BME280;12883;52.662;5.196;2023-01-05T04:08:56;101541.94;;;11.77;100.00
24788;BME280;12883;52.662;5.196;2023-01-05T04:11:22;101509.34;;;11.54;100.00
24788;BME280;12883;52.662;5.196;2023-01-05T04:13:48;101552.75;;;11.75;100.00
24788;BME280;12883;52.662;5.196;2023-01-05T04:16:13;101554.84;;;11.80;100.00
24788;BME280;12883;52.662;5.196;2023-01-05T04:18:39;101560.00;;;11.81;100.00
24788;BME280;12883;52.662;5.196;2023-01-05T04:21:05;101561.19;;;11.79;100.00
24788;BME280;12883;52.662;5.196;2023-01-05T04:23:31;101562.38;;;11.76;100.00
24788;BME280;12883;52.662;5.196;2023-01-05T04:25:56;101550.69;;;11.71;100.00
24788;BME280;12883;52.662;5.196;2023-01-05T04:28:22;101548.03;;;11.71;100.00
24788;BME280;12883;52.662;5.196;2023-01-05T04:30:52;101583.66;;;11.76;100.00
24788;BME280;12883;52.662;5.196;2023-01-05T04:33:18;101570.13;;;11.57;100.00
24788;BME280;12883;52.662;5.196;2023-01-05T04:35:44;101581.75;;;11.70;100.00
24788;BME280;12883;52.662;5.196;2023-01-05T04:38:10;101586.03;;;11.71;100.00
24788;BME280;12883;52.662;5.196;2023-01-05T04:40:35;101580.94;;;11.70;100.00
24788;BME280;12883;52.662;5.196;2023-01-05T04:43:00;101569.97;;;11.44;100.00
24788;BME280;12883;52.662;5.196;2023-01-05T04:45:26;101587.72;;;11.72;100.00
24788;BME280;12883;52.662;5.196;2023-01-05T04:47:51;101579.28;;;11.69;100.00
24788;BME280;12883;52.662;5.196;2023-01-05T04:50:17;101580.94;;;11.70;100.00
24788;BME280;12883;52.662;5.196;2023-01-05T04:52:43;101581.94;;;11.69;100.00
24788;BME280;12883;52.662;5.196;2023-01-05T04:55:09;101584.41;;;11.70;100.00
24788;BME280;12883;52.662;5.196;2023-01-05T04:57:34;101582.59;;;11.71;100.00
24788;BME280;12883;52.662;5.196;2023-01-05T05:00:00;101587.28;;;11.69;100.00
24788;BME280;12883;52.662;5.196;2023-01-05T05:02:26;101586.88;;;11.72;100.00
24788;BME280;12883;52.662;5.196;2023-01-05T05:04:51;101585.53;;;11.61;100.00
24788;BME280;12883;52.662;5.196;2023-01-05T05:07:17;101581.75;;;11.56;100.00
24788;BME280;12883;52.662;5.196;2023-01-05T05:09:43;101582.13;;;11.53;100.00
24788;BME280;12883;52.662;5.196;2023-01-05T05:12:08;101589.09;;;11.54;100.00
24788;BME280;12883;52.662;5.196;2023-01-05T05:14:33;101600.72;;;11.53;100.00
24788;BME280;12883;52.662;5.196;2023-01-05T05:16:59;101593.13;;;11.50;100.00
24788;BME280;12883;52.662;5.196;2023-01-05T05:19:24;101596.34;;;11.45;100.00
24788;BME280;12883;52.662;5.196;2023-01-05T05:21:49;101597.38;;;11.44;100.00
24788;BME280;12883;52.662;5.196;2023-01-05T05:24:15;101608.25;;;11.49;100.00
24788;BME280;12883;52.662;5.196;2023-01-05T05:26:40;101597.25;;;11.52;100.00
24788;BME280;12883;52.662;5.196;2023-01-05T05:29:05;101615.31;;;11.57;100.00
24788;BME280;12883;52.662;5.196;2023-01-05T05:31:31;101610.34;;;11.54;100.00
24788;BME280;12883;52.662;5.196;2023-01-05T05:33:56;101612.38;;;11.52;100.00
24788;BME280;12883;52.662;5.196;2023-01-05T05:36:21;101622.94;;;11.60;100.00
24788;BME280;12883;52.662;5.196;2023-01-05T05:38:47;101623.13;;;11.58;100.00
24788;BME280;12883;52.662;5.196;2023-01-05T05:41:12;101629.97;;;11.67;100.00
24788;BME280;12883;52.662;5.196;2023-01-05T05:43:38;101633.38;;;11.61;100.00
24788;BME280;12883;52.662;5.196;2023-01-05T05:46:03;101642.66;;;11.65;100.00
24788;BME280;12883;52.662;5.196;2023-01-05T05:48:29;101650.41;;;11.67;100.00
24788;BME280;12883;52.662;5.196;2023-01-05T05:50:54;101649.84;;;11.71;100.00
24788;BME280;12883;52.662;5.196;2023-01-05T05:53:20;101651.06;;;11.69;100.00
24788;BME280;12883;52.662;5.196;2023-01-05T05:55:49;101656.13;;;11.64;100.00
24788;BME280;12883;52.662;5.196;2023-01-05T05:58:18;101652.72;;;11.70;100.00
24788;BME280;12883;52.662;5.196;2023-01-05T06:00:43;101649.41;;;11.68;100.00
24788;BME280;12883;52.662;5.196;2023-01-05T06:03:09;101663.81;;;11.73;100.00
24788;BME280;12883;52.662;5.196;2023-01-05T06:05:34;101637.75;;;11.54;100.00
24788;BME280;12883;52.662;5.196;2023-01-05T06:07:59;101661.16;;;11.73;100.00
24788;BME280;12883;52.662;5.196;2023-01-05T06:10:25;101666.19;;;11.68;100.00
24788;BME280;12883;52.662;5.196;2023-01-05T06:12:54;101675.25;;;11.74;100.00
24788;BME280;12883;52.662;5.196;2023-01-05T06:15:21;101651.81;;;11.63;100.00
24788;BME280;12883;52.662;5.196;2023-01-05T06:17:46;101668.84;;;11.68;100.00
24788;BME280;12883;52.662;5.196;2023-01-05T06:20:13;101669.03;;;11.67;100.00
24788;BME280;12883;52.662;5.196;2023-01-05T06:22:41;101678.00;;;11.66;100.00
24788;BME280;12883;52.662;5.196;2023-01-05T06:25:07;101676.56;;;11.63;100.00
24788;BME280;12883;52.662;5.196;2023-01-05T06:27:33;101677.47;;;11.56;100.00
24788;BME280;12883;52.662;5.196;2023-01-05T06:29:58;101690.09;;;11.54;100.00
24788;BME280;12883;52.662;5.196;2023-01-05T06:32:23;101690.09;;;11.54;100.00
24788;BME280;12883;52.662;5.196;2023-01-05T06:34:49;101691.47;;;11.50;100.00
24788;BME280;12883;52.662;5.196;2023-01-05T06:37:14;101694.88;;;11.44;100.00
24788;BME280;12883;52.662;5.196;2023-01-05T06:39:40;101694.88;;;11.44;100.00
24788;BME280;12883;52.662;5.196;2023-01-05T06:42:05;101700.44;;;11.34;100.00
24788;BME280;12883;52.662;5.196;2023-01-05T06:44:30;101684.88;;;11.31;100.00
24788;BME280;12883;52.662;5.196;2023-01-05T06:46:56;101671.94;;;11.14;100.00
24788;BME280;12883;52.662;5.196;2023-01-05T06:49:21;101697.78;;;11.34;100.00
24788;BME280;12883;52.662;5.196;2023-01-05T06:51:47;101707.53;;;11.42;100.00
24788;BME280;12883;52.662;5.196;2023-01-05T06:54:13;101699.25;;;11.37;100.00
24788;BME280;12883;52.662;5.196;2023-01-05T06:56:38;101708.53;;;11.41;100.00
24788;BME280;12883;52.662;5.196;2023-01-05T06:59:03;101716.50;;;11.41;100.00
24788;BME280;12883;52.662;5.196;2023-01-05T07:01:29;101706.34;;;11.44;100.00
24788;BME280;12883;52.662;5.196;2023-01-05T07:03:54;101718.41;;;11.47;100.00
24788;BME280;12883;52.662;5.196;2023-01-05T07:06:20;101719.41;;;11.46;100.00
24788;BME280;12883;52.662;5.196;2023-01-05T07:08:45;101720.09;;;11.48;100.00
24788;BME280;12883;52.662;5.196;2023-01-05T07:11:10;101726.03;;;11.50;100.00
24788;BME280;12883;52.662;5.196;2023-01-05T07:13:36;101725.41;;;11.48;100.00
24788;BME280;12883;52.662;5.196;2023-01-05T07:16:01;101731.06;;;11.45;100.00
24788;BME280;12883;52.662;5.196;2023-01-05T07:18:26;101736.53;;;11.43;100.00
24788;BME280;12883;52.662;5.196;2023-01-05T07:20:52;101735.00;;;11.34;100.00
24788;BME280;12883;52.662;5.196;2023-01-05T07:23:17;101738.09;;;11.38;100.00
24788;BME280;12883;52.662;5.196;2023-01-05T07:25:44;101732.78;;;11.38;100.00
24788;BME280;12883;52.662;5.196;2023-01-05T07:28:09;101742.97;;;11.34;100.00
24788;BME280;12883;52.662;5.196;2023-01-05T07:30:35;101727.00;;;11.34;100.00
24788;BME280;12883;52.662;5.196;2023-01-05T07:33:00;101735.63;;;11.36;100.00
24788;BME280;12883;52.662;5.196;2023-01-05T07:35:27;101735.53;;;11.30;100.00
24788;BME280;12883;52.662;5.196;2023-01-05T07:37:55;101726.81;;;11.21;100.00
24788;BME280;12883;52.662;5.196;2023-01-05T07:40:21;101742.16;;;11.34;100.00
24788;BME280;12883;52.662;5.196;2023-01-05T07:42:53;101745.44;;;11.36;100.00
24788;BME280;12883;52.662;5.196;2023-01-05T07:45:19;101709.00;;;11.07;100.00
24788;BME280;12883;52.662;5.196;2023-01-05T07:47:44;101740.38;;;11.26;100.00
24788;BME280;12883;52.662;5.196;2023-01-05T07:50:10;101743.34;;;11.31;100.00
24788;BME280;12883;52.662;5.196;2023-01-05T07:52:35;101760.94;;;11.32;100.00
24788;BME280;12883;52.662;5.196;2023-01-05T07:55:01;101764.13;;;11.28;100.00
24788;BME280;12883;52.662;5.196;2023-01-05T07:57:26;101735.22;;;11.10;100.00
24788;BME280;12883;52.662;5.196;2023-01-05T07:59:51;101783.00;;;11.33;100.00
24788;BME280;12883;52.662;5.196;2023-01-05T08:02:17;101783.38;;;11.30;100.00
24788;BME280;12883;52.662;5.196;2023-01-05T08:04:42;101796.94;;;11.35;100.00
24788;BME280;12883;52.662;5.196;2023-01-05T08:07:07;101789.31;;;11.32;100.00
24788;BME280;12883;52.662;5.196;2023-01-05T08:09:36;101799.59;;;11.35;100.00
24788;BME280;12883;52.662;5.196;2023-01-05T08:12:20;101799.06;;;11.39;100.00
24788;BME280;12883;52.662;5.196;2023-01-05T08:14:45;101804.19;;;11.41;100.00
24788;BME280;12883;52.662;5.196;2023-01-05T08:17:11;101823.78;;;11.40;100.00
24788;BME280;12883;52.662;5.196;2023-01-05T08:19:36;101806.56;;;11.36;100.00
24788;BME280;12883;52.662;5.196;2023-01-05T08:22:02;101812.50;;;11.38;100.00
24788;BME280;12883;52.662;5.196;2023-01-05T08:24:27;101812.16;;;11.41;100.00
24788;BME280;12883;52.662;5.196;2023-01-05T08:26:53;101822.44;;;11.44;100.00
24788;BME280;12883;52.662;5.196;2023-01-05T08:29:19;101835.16;;;11.48;100.00
24788;BME280;12883;52.662;5.196;2023-01-05T08:31:45;101840.56;;;11.40;100.00
24788;BME280;12883;52.662;5.196;2023-01-05T08:34:10;101831.03;;;11.46;100.00
24788;BME280;12883;52.662;5.196;2023-01-05T08:36:36;101837.84;;;11.48;100.00
24788;BME280;12883;52.662;5.196;2023-01-05T08:39:01;101842.69;;;11.45;100.00
24788;BME280;12883;52.662;5.196;2023-01-05T08:41:30;101848.63;;;11.47;100.00
24788;BME280;12883;52.662;5.196;2023-01-05T08:43:58;101813.91;;;11.34;100.00
24788;BME280;12883;52.662;5.196;2023-01-05T08:46:25;101829.31;;;11.38;100.00
24788;BME280;12883;52.662;5.196;2023-01-05T08:48:54;101853.22;;;11.53;100.00
24788;BME280;12883;52.662;5.196;2023-01-05T08:51:20;101861.88;;;11.55;100.00
24788;BME280;12883;52.662;5.196;2023-01-05T08:53:45;101856.34;;;11.56;100.00
24788;BME280;12883;52.662;5.196;2023-01-05T08:56:11;101856.56;;;11.55;100.00
24788;BME280;12883;52.662;5.196;2023-01-05T08:58:38;101865.69;;;11.60;100.00
24788;BME280;12883;52.662;5.196;2023-01-05T09:01:08;101870.81;;;11.62;100.00
24788;BME280;12883;52.662;5.196;2023-01-05T09:03:33;101868.16;;;11.62;100.00
24788;BME280;12883;52.662;5.196;2023-01-05T09:05:59;101875.13;;;11.63;100.00
24788;BME280;12883;52.662;5.196;2023-01-05T09:08:28;101880.44;;;11.63;100.00
24788;BME280;12883;52.662;5.196;2023-01-05T09:10:54;101887.03;;;11.67;100.00
24788;BME280;12883;52.662;5.196;2023-01-05T09:13:19;101880.78;;;11.60;100.00
24788;BME280;12883;52.662;5.196;2023-01-05T09:15:45;101884.78;;;11.56;100.00
24788;BME280;12883;52.662;5.196;2023-01-05T09:18:10;101882.44;;;11.61;100.00
24788;BME280;12883;52.662;5.196;2023-01-05T09:20:35;101891.00;;;11.71;100.00
24788;BME280;12883;52.662;5.196;2023-01-05T09:23:01;101888.69;;;11.68;100.00
24788;BME280;12883;52.662;5.196;2023-01-05T09:25:26;101900.63;;;11.72;100.00
24788;BME280;12883;52.662;5.196;2023-01-05T09:27:51;101902.81;;;11.68;100.00
24788;BME280;12883;52.662;5.196;2023-01-05T09:30:19;101894.13;;;11.74;100.00
24788;BME280;12883;52.662;5.196;2023-01-05T09:32:45;101906.94;;;11.71;100.00
24788;BME280;12883;52.662;5.196;2023-01-05T09:35:10;101895.69;;;11.69;100.00
24788;BME280;12883;52.662;5.196;2023-01-05T09:37:35;101902.66;;;11.70;100.00
24788;BME280;12883;52.662;5.196;2023-01-05T09:40:01;101911.91;;;11.74;100.00
24788;BME280;12883;52.662;5.196;2023-01-05T09:42:27;101905.22;;;11.78;100.00
24788;BME280;12883;52.662;5.196;2023-01-05T09:45:00;101891.88;;;11.63;100.00
24788;BME280;12883;52.662;5.196;2023-01-05T09:47:36;101912.56;;;11.76;100.00
24788;BME280;12883;52.662;5.196;2023-01-05T09:50:06;101914.56;;;11.74;100.00
24788;BME280;12883;52.662;5.196;2023-01-05T09:52:32;101919.16;;;11.80;100.00
24788;BME280;12883;52.662;5.196;2023-01-05T09:54:58;101923.13;;;11.84;100.00
24788;BME280;12883;52.662;5.196;2023-01-05T09:57:26;101927.78;;;11.82;100.00
24788;BME280;12883;52.662;5.196;2023-01-05T09:59:56;101926.44;;;11.86;100.00
24788;BME280;12883;52.662;5.196;2023-01-05T10:02:28;101923.13;;;11.84;100.00
24788;BME280;12883;52.662;5.196;2023-01-05T10:04:55;101926.06;;;11.89;100.00
24788;BME280;12883;52.662;5.196;2023-01-05T10:10:07;101937.69;;;11.88;100.00
24788;BME280;12883;52.662;5.196;2023-01-05T10:12:43;101936.06;;;11.87;100.00
24788;BME280;12883;52.662;5.196;2023-01-05T10:15:48;101931.56;;;11.87;100.00
24788;BME280;12883;52.662;5.196;2023-01-05T10:18:19;101949.94;;;11.97;100.00
24788;BME280;12883;52.662;5.196;2023-01-05T10:20:54;101940.19;;;11.89;100.00
24788;BME280;12883;52.662;5.196;2023-01-05T10:28:59;101936.81;;;11.95;100.00
24788;BME280;12883;52.662;5.196;2023-01-05T10:39:58;101905.31;;;11.84;100.00
24788;BME280;12883;52.662;5.196;2023-01-05T10:42:50;101944.88;;;12.02;100.00
24788;BME280;12883;52.662;5.196;2023-01-05T10:45:20;101929.13;;;12.00;100.00
24788;BME280;12883;52.662;5.196;2023-01-05T10:47:47;101936.91;;;12.02;100.00
24788;BME280;12883;52.662;5.196;2023-01-05T10:50:34;101953.72;;;12.02;100.00
24788;BME280;12883;52.662;5.196;2023-01-05T10:53:15;101953.53;;;12.04;100.00
24788;BME280;12883;52.662;5.196;2023-01-05T10:58:29;101952.88;;;12.02;100.00
24788;BME280;12883;52.662;5.196;2023-01-05T11:01:01;101915.78;;;11.86;100.00
24788;BME280;12883;52.662;5.196;2023-01-05T11:03:41;101945.81;;;12.09;100.00
24788;BME280;12883;52.662;5.196;2023-01-05T11:06:35;101940.88;;;12.06;100.00
24788;BME280;12883;52.662;5.196;2023-01-05T11:09:21;101955.75;;;12.15;100.00
24788;BME280;12883;52.662;5.196;2023-01-05T11:11:58;101966.59;;;12.13;100.00
24788;BME280;12883;52.662;5.196;2023-01-05T11:14:26;101953.78;;;12.09;100.00
24788;BME280;12883;52.662;5.196;2023-01-05T11:16:54;101959.78;;;12.11;100.00
24788;BME280;12883;52.662;5.196;2023-01-05T11:19:29;101957.75;;;12.13;100.00
24788;BME280;12883;52.662;5.196;2023-01-05T11:21:56;101954.38;;;12.19;100.00
24788;BME280;12883;52.662;5.196;2023-01-05T11:26:57;101964.72;;;12.14;100.00
24788;BME280;12883;52.662;5.196;2023-01-05T11:29:23;101952.44;;;12.13;100.00
24788;BME280;12883;52.662;5.196;2023-01-05T11:32:04;101961.72;;;12.17;100.00
24788;BME280;12883;52.662;5.196;2023-01-05T11:39:46;101918.66;;;11.99;100.00
24788;BME280;12883;52.662;5.196;2023-01-05T11:44:52;101966.66;;;12.20;100.00
24788;BME280;12883;52.662;5.196;2023-01-05T11:49:58;101953.19;;;12.21;100.00
24788;BME280;12883;52.662;5.196;2023-01-05T11:52:46;101953.44;;;12.26;100.00
24788;BME280;12883;52.662;5.196;2023-01-05T11:57:50;101950.78;;;12.26;100.00
24788;BME280;12883;52.662;5.196;2023-01-05T12:00:23;101950.16;;;12.24;100.00
24788;BME280;12883;52.662;5.196;2023-01-05T12:05:29;101960.06;;;12.30;100.00
24788;BME280;12883;52.662;5.196;2023-01-05T12:08:12;101955.94;;;12.28;100.00
24788;BME280;12883;52.662;5.196;2023-01-05T12:11:01;101956.31;;;12.25;100.00
24788;BME280;12883;52.662;5.196;2023-01-05T12:16:43;101955.00;;;12.21;100.00
24788;BME280;12883;52.662;5.196;2023-01-05T12:22:00;101945.00;;;12.23;100.00
24788;BME280;12883;52.662;5.196;2023-01-05T12:30:18;101938.75;;;12.16;100.00
24788;BME280;12883;52.662;5.196;2023-01-05T12:35:55;101940.53;;;12.23;100.00
24788;BME280;12883;52.662;5.196;2023-01-05T12:38:39;101940.81;;;12.28;100.00
24788;BME280;12883;52.662;5.196;2023-01-05T12:41:42;101947.31;;;12.26;100.00
24788;BME280;12883;52.662;5.196;2023-01-05T12:47:03;101938.88;;;12.22;100.00
24788;BME280;12883;52.662;5.196;2023-01-05T12:52:34;101907.75;;;12.08;100.00
24788;BME280;12883;52.662;5.196;2023-01-05T12:55:20;101948.41;;;12.31;100.00
24788;BME280;12883;52.662;5.196;2023-01-05T12:57:49;101886.34;;;12.02;100.00
24788;BME280;12883;52.662;5.196;2023-01-05T13:00:19;101934.94;;;12.33;100.00
24788;BME280;12883;52.662;5.196;2023-01-05T13:02:53;101936.22;;;12.22;100.00
24788;BME280;12883;52.662;5.196;2023-01-05T13:05:38;101938.50;;;12.25;100.00
24788;BME280;12883;52.662;5.196;2023-01-05T13:13:39;101942.56;;;12.21;100.00
24788;BME280;12883;52.662;5.196;2023-01-05T13:16:22;101944.66;;;12.26;100.00
24788;BME280;12883;52.662;5.196;2023-01-05T13:21:35;101940.34;;;12.25;100.00
24788;BME280;12883;52.662;5.196;2023-01-05T13:24:07;101954.66;;;12.24;100.00
24788;BME280;12883;52.662;5.196;2023-01-05T13:26:35;101951.47;;;12.28;100.00
24788;BME280;12883;52.662;5.196;2023-01-05T13:29:01;101947.31;;;12.26;100.00
24788;BME280;12883;52.662;5.196;2023-01-05T13:37:11;101935.59;;;12.20;100.00
24788;BME280;12883;52.662;5.196;2023-01-05T13:40:07;101937.41;;;12.20;100.00
24788;BME280;12883;52.662;5.196;2023-01-05T13:45:57;101934.91;;;12.18;100.00
24788;BME280;12883;52.662;5.196;2023-01-05T13:51:06;101937.19;;;12.07;100.00
24788;BME280;12883;52.662;5.196;2023-01-05T13:53:39;101941.88;;;12.05;100.00
24788;BME280;12883;52.662;5.196;2023-01-05T13:56:21;101938.28;;;11.98;100.00
24788;BME280;12883;52.662;5.196;2023-01-05T13:59:30;101939.31;;;11.97;100.00
24788;BME280;12883;52.662;5.196;2023-01-05T14:01:57;101942.69;;;11.91;100.00
24788;BME280;12883;52.662;5.196;2023-01-05T14:04:26;101941.66;;;11.92;100.00
24788;BME280;12883;52.662;5.196;2023-01-05T14:07:06;101944.16;;;11.93;100.00
24788;BME280;12883;52.662;5.196;2023-01-05T14:09:46;101940.09;;;11.83;100.00
24788;BME280;12883;52.662;5.196;2023-01-05T14:23:02;101917.50;;;11.79;100.00
24788;BME280;12883;52.662;5.196;2023-01-05T14:28:18;101910.19;;;11.81;100.00
24788;BME280;12883;52.662;5.196;2023-01-05T14:30:44;101910.88;;;11.75;100.00
24788;BME280;12883;52.662;5.196;2023-01-05T14:33:10;101902.56;;;11.78;100.00
24788;BME280;12883;52.662;5.196;2023-01-05T14:35:36;101910.41;;;11.71;100.00
24788;BME280;12883;52.662;5.196;2023-01-05T14:38:05;101911.25;;;11.72;100.00
24788;BME280;12883;52.662;5.196;2023-01-05T14:43:02;101915.09;;;11.69;100.00
24788;BME280;12883;52.662;5.196;2023-01-05T14:45:32;101890.81;;;11.50;100.00
24788;BME280;12883;52.662;5.196;2023-01-05T14:48:01;101909.84;;;11.61;100.00
24788;BME280;12883;52.662;5.196;2023-01-05T14:50:31;101898.19;;;11.40;100.00
24788;BME280;12883;52.662;5.196;2023-01-05T14:53:02;101918.88;;;11.52;100.00